Clark, Colorado
Current Conditions -  °F | °C
As of 7:15 AM on Thursday 18 Dec 2014 (Local Time) from KSBS Reporting Station
Overcast Overcast  
Wind Chill: 24°   Ceiling: 1400
Heat Index: 24°   Visibility: 5mi
Dew Point: 23°   Wind: 0mph
Humidity: 96%   Direction: NA
Pressure: 30.09"   Gusts: NA
Location:  40.76°N, 106.94°W
Report Text: KSBS 181415Z AUTO 00000KT 5SM SCT009 OVC014 M05/M05 A3009 RMK AO1 T10471052
Loading
Personal Weather Stations






























Interactive Weather Map New forecast layout! Learn more

10-Day Weather Forecast

Advertisements
Track Severe Weather on mobile